This is the latest recevied weather packets stored in our database for station/object KE8WAY. If no packets are shown the sender has not sent any weather packets the latest 1 day(s).
| Time | Temp. | Humidity | Pressure | Rain* | Wind** | Luminosity | Snow |
|---|---|---|---|---|---|---|---|
| 1778019683 | 10.56° C | 86% | 1007.5 hPa | 1.27 mm | 1.34 m/s, 224° | 36 W/m² | - |
| 1778019380 | 10.56° C | 86% | 1007.3 hPa | 1.27 mm | 1.79 m/s, 221° | 34 W/m² | - |
| 1778002105 | 15.56° C | 55% | 1006.6 hPa | 0 mm | 3.58 m/s, 223° | 168 W/m² | - |
| 1778001802 | 15.56° C | 53% | 1006.4 hPa | 0 mm | 3.58 m/s, 247° | 164 W/m² | - |
| 1778001496 | 15.56° C | 52% | 1006.7 hPa | 0 mm | 2.24 m/s, 273° | 136 W/m² | - |
| 1778001193 | 15.56° C | 51% | 1006.8 hPa | 0 mm | 2.24 m/s, 248° | 111 W/m² | - |
| 1778000889 | 15.56° C | 50% | 1006.9 hPa | 0 mm | 2.24 m/s, 278° | 138 W/m² | - |
| 1778000586 | 15.56° C | 52% | 1006.7 hPa | 0 mm | 4.02 m/s, 246° | 141 W/m² | - |
| 1778000282 | 15.56° C | 53% | 1006.9 hPa | 0 mm | 3.58 m/s, 245° | 183 W/m² | - |
| 1777999978 | 15.56° C | 54% | 1006.9 hPa | 0 mm | 3.13 m/s, 287° | 261 W/m² | - |
| 1777999673 | 15.56° C | 57% | 1006.7 hPa | 0 mm | 3.13 m/s, 309° | 186 W/m² | - |
| 1777999371 | 15.56° C | 58% | 1006.7 hPa | 0 mm | 2.24 m/s, 241° | 142 W/m² | - |
| 1777999069 | 15.56° C | 56% | 1006.7 hPa | 0 mm | 4.47 m/s, 235° | 117 W/m² | - |
| 1777998767 | 16.11° C | 58% | 1006.7 hPa | 0 mm | 3.13 m/s, 319° | 174 W/m² | - |
| 1777998465 | 16.11° C | 58% | 1006.9 hPa | 0 mm | 4.92 m/s, 304° | 215 W/m² | - |
| 1777998161 | 16.11° C | 60% | 1006.8 hPa | 0 mm | 4.02 m/s, 303° | 133 W/m² | - |
| 1777997858 | 16.11° C | 62% | 1006.9 hPa | 0 mm | 4.92 m/s, 318° | 229 W/m² | - |
| 1777997556 | 16.11° C | 64% | 1006.7 hPa | 0 mm | 4.92 m/s, 303° | 112 W/m² | - |
| 1777997253 | 16.11° C | 65% | 1006.8 hPa | 0 mm | 3.58 m/s, 265° | 93 W/m² | - |
| 1777996951 | 16.11° C | 66% | 1006.9 hPa | 0 mm | 3.13 m/s, 293° | 119 W/m² | - |
| 1777996647 | 16.11° C | 68% | 1006.6 hPa | 0 mm | 5.81 m/s, 253° | 171 W/m² | - |
| 1777996343 | 16.11° C | 70% | 1006.5 hPa | 0 mm | 6.26 m/s, 228° | 130 W/m² | - |
| 1777996039 | 16.67° C | 69% | 1006.8 hPa | 0 mm | 5.36 m/s, 246° | 135 W/m² | - |
| 1777995736 | 16.11° C | 68% | 1006.5 hPa | 0 mm | 4.92 m/s, 211° | 187 W/m² | - |
| 1777995432 | 16.11° C | 69% | 1006.5 hPa | 0 mm | 3.58 m/s, 246° | 163 W/m² | - |
* Rain latest hour (hover to see other rain measurements)
** Current wind speed in m/s (hover to see current wind gust speed)